createdAt,value
2023-10-26T00:00:11.149Z,2.70
2023-10-26T00:02:38.537Z,2.93
2023-10-26T00:05:06.798Z,3.70
2023-10-26T00:07:33.917Z,1.10
2023-10-26T00:10:00.865Z,1.47
2023-10-26T00:12:27.859Z,3.43
2023-10-26T00:14:54.850Z,1.23
2023-10-26T00:17:23.305Z,1.00
2023-10-26T00:19:50.396Z,0.70
2023-10-26T00:22:17.318Z,2.00
2023-10-26T00:24:44.535Z,1.50
2023-10-26T00:27:11.733Z,1.60
2023-10-26T00:29:38.636Z,1.60
2023-10-26T00:32:06.465Z,4.20
2023-10-26T00:34:34.393Z,3.40
2023-10-26T00:37:02.047Z,0.60
2023-10-26T00:39:29.665Z,2.20
2023-10-26T00:41:57.071Z,1.50
2023-10-26T00:44:24.368Z,1.07
2023-10-26T00:46:53.264Z,1.57
2023-10-26T00:49:21.013Z,0.70
2023-10-26T00:52:03.932Z,1.43
2023-10-26T00:54:32.067Z,0.90
2023-10-26T00:56:59.512Z,1.23
2023-10-26T00:59:29.345Z,1.63
2023-10-26T01:01:57.470Z,1.70
2023-10-26T01:04:24.629Z,2.03
2023-10-26T01:06:51.511Z,1.93
2023-10-26T01:09:18.600Z,1.27
2023-10-26T01:11:45.621Z,2.60
2023-10-26T01:14:12.675Z,0.83
2023-10-26T01:16:40.687Z,1.00
2023-10-26T01:19:10.193Z,2.20
2023-10-26T01:21:53.771Z,0.50
2023-10-26T01:24:21.650Z,1.20
2023-10-26T01:26:48.937Z,1.57
2023-10-26T01:29:16.072Z,0.80
2023-10-26T01:31:42.961Z,4.03
2023-10-26T01:34:09.962Z,0.47
2023-10-26T01:36:37.124Z,0.50
2023-10-26T01:39:05.332Z,1.43
2023-10-26T01:41:33.680Z,1.23
2023-10-26T01:44:02.535Z,0.80
2023-10-26T01:46:29.535Z,0.80
2023-10-26T01:48:56.788Z,0.60
2023-10-26T01:51:23.967Z,3.13
2023-10-26T01:53:50.887Z,2.70
2023-10-26T01:56:17.913Z,0.80
2023-10-26T01:58:45.532Z,2.60
2023-10-26T02:01:13.995Z,4.83
2023-10-26T02:03:41.002Z,3.70
2023-10-26T02:06:08.388Z,0.70
2023-10-26T02:08:35.432Z,0.40
2023-10-26T02:11:02.453Z,1.07
2023-10-26T02:13:29.325Z,4.80
2023-10-26T02:15:56.281Z,2.53
2023-10-26T02:18:23.309Z,1.10
2023-10-26T02:20:50.407Z,2.77
2023-10-26T02:23:17.343Z,0.50
2023-10-26T02:25:44.300Z,1.33
2023-10-26T02:28:16.926Z,3.03
2023-10-26T02:30:45.008Z,0.40
2023-10-26T02:33:11.966Z,2.73
2023-10-26T02:35:40.893Z,2.80
2023-10-26T02:38:07.770Z,1.30
2023-10-26T02:40:37.748Z,0.50
2023-10-26T02:43:05.198Z,3.70
2023-10-26T02:45:32.670Z,0.77
2023-10-26T02:48:00.320Z,1.33
2023-10-26T02:50:27.779Z,0.67
2023-10-26T02:52:54.718Z,2.00
2023-10-26T02:55:21.560Z,0.83
2023-10-26T02:57:49.465Z,2.43
2023-10-26T03:00:17.637Z,1.10
2023-10-26T03:02:45.028Z,0.73
2023-10-26T03:05:12.293Z,0.90
2023-10-26T03:07:39.336Z,1.03
2023-10-26T03:10:06.677Z,1.33
2023-10-26T03:12:33.686Z,0.43
2023-10-26T03:15:01.291Z,1.10
2023-10-26T03:17:28.348Z,2.20
2023-10-26T03:19:55.406Z,0.97
2023-10-26T03:22:22.624Z,0.40
2023-10-26T03:24:51.577Z,0.87
2023-10-26T03:27:18.762Z,2.70
2023-10-26T03:29:45.759Z,1.03
2023-10-26T03:32:12.637Z,2.83
2023-10-26T03:34:39.749Z,0.93
2023-10-26T03:37:06.612Z,0.80
2023-10-26T03:39:33.530Z,2.00
2023-10-26T03:42:00.538Z,2.03
2023-10-26T03:44:27.669Z,1.20
2023-10-26T03:46:54.608Z,1.23
2023-10-26T03:49:21.770Z,3.20
2023-10-26T03:51:49.515Z,2.73
2023-10-26T03:54:16.668Z,1.10
2023-10-26T03:56:43.774Z,0.70
2023-10-26T03:59:10.673Z,2.60
2023-10-26T04:01:37.575Z,1.40
2023-10-26T04:04:04.933Z,3.77
2023-10-26T04:06:31.947Z,2.97
2023-10-26T04:08:58.931Z,3.10
2023-10-26T04:11:26.296Z,0.87
2023-10-26T04:13:55.462Z,1.93
2023-10-26T04:16:22.996Z,1.30
2023-10-26T04:18:50.092Z,1.03
2023-10-26T04:21:17.342Z,0.70
2023-10-26T04:23:44.655Z,2.20
2023-10-26T04:26:13.703Z,1.20
2023-10-26T04:28:51.382Z,1.67
2023-10-26T04:31:21.039Z,1.97
2023-10-26T04:33:48.233Z,0.90
2023-10-26T04:36:15.220Z,1.23
2023-10-26T04:38:42.261Z,0.90
2023-10-26T04:41:09.174Z,1.20
2023-10-26T04:43:36.288Z,2.43
2023-10-26T04:46:03.206Z,0.73
2023-10-26T04:48:31.112Z,3.03
2023-10-26T04:50:58.255Z,3.10
2023-10-26T04:53:25.153Z,2.77
2023-10-26T04:55:52.112Z,1.20
2023-10-26T04:58:19.683Z,2.20
2023-10-26T05:00:46.681Z,1.67
2023-10-26T05:03:14.025Z,1.20
2023-10-26T05:05:41.092Z,1.20
2023-10-26T05:08:07.861Z,1.93
2023-10-26T05:10:35.678Z,1.83
2023-10-26T05:13:02.682Z,19.23
2023-10-26T05:15:29.788Z,8.20
2023-10-26T05:17:56.898Z,4.20
2023-10-26T05:20:23.900Z,0.77
2023-10-26T05:22:50.910Z,1.37
2023-10-26T05:25:18.112Z,3.17
2023-10-26T05:27:45.527Z,13.63
2023-10-26T05:30:12.690Z,21.23
2023-10-26T05:32:40.415Z,23.80
2023-10-26T05:35:07.600Z,10.60
2023-10-26T05:37:35.275Z,2.33
2023-10-26T05:40:02.321Z,6.70
2023-10-26T05:42:29.196Z,2.70
2023-10-26T05:44:57.724Z,2.13
2023-10-26T05:47:25.076Z,1.27
2023-10-26T05:49:52.324Z,4.33
2023-10-26T05:52:19.405Z,4.37
2023-10-26T05:54:46.678Z,3.10
2023-10-26T05:57:14.187Z,4.17
2023-10-26T05:59:41.302Z,4.60
2023-10-26T06:02:08.352Z,4.37
2023-10-26T06:04:35.285Z,5.40
2023-10-26T06:07:03.191Z,5.10
2023-10-26T06:09:30.366Z,3.90
2023-10-26T06:11:57.632Z,5.70
2023-10-26T06:14:24.674Z,12.00
2023-10-26T06:16:51.683Z,4.83
2023-10-26T06:19:18.952Z,6.33
2023-10-26T06:21:45.945Z,6.33
2023-10-26T06:24:12.908Z,5.00
2023-10-26T06:26:39.965Z,5.47
2023-10-26T06:29:08.119Z,1.37
2023-10-26T06:31:35.383Z,2.43
2023-10-26T06:34:02.386Z,4.90
2023-10-26T06:36:29.460Z,3.97
2023-10-26T06:38:57.721Z,3.73
2023-10-26T06:41:24.830Z,5.70
2023-10-26T06:43:52.909Z,3.53
2023-10-26T06:46:20.773Z,2.00
2023-10-26T06:48:47.806Z,7.00
2023-10-26T06:51:14.999Z,5.50
2023-10-26T06:53:42.219Z,5.77
2023-10-26T06:56:13.439Z,9.90
2023-10-26T06:58:41.424Z,8.47
2023-10-26T07:01:20.792Z,9.80
2023-10-26T07:03:50.392Z,7.80
2023-10-26T07:06:17.708Z,9.77
2023-10-26T07:08:45.067Z,9.87
2023-10-26T07:11:11.969Z,11.07
2023-10-26T07:13:39.584Z,11.27
2023-10-26T07:16:06.890Z,10.90
2023-10-26T07:18:34.946Z,15.00
2023-10-26T07:21:06.876Z,10.57
2023-10-26T07:23:34.848Z,22.03
2023-10-26T07:26:02.190Z,12.33
2023-10-26T07:28:29.398Z,21.80
2023-10-26T07:30:56.317Z,22.53
2023-10-26T07:33:24.648Z,16.67
2023-10-26T07:35:54.190Z,19.60
2023-10-26T07:38:35.680Z,11.30
2023-10-26T07:41:06.917Z,8.63
2023-10-26T07:43:35.219Z,10.73
2023-10-26T07:46:02.811Z,8.03
2023-10-26T07:48:30.095Z,7.03
2023-10-26T07:51:04.439Z,12.43
2023-10-26T07:53:32.118Z,5.47
2023-10-26T07:55:59.345Z,5.90
2023-10-26T07:58:28.845Z,4.30
2023-10-26T08:00:55.932Z,4.17
2023-10-26T08:03:25.495Z,4.63
2023-10-26T08:06:01.907Z,2.77
2023-10-26T08:08:29.487Z,2.20
2023-10-26T08:10:57.683Z,3.33
2023-10-26T08:13:25.954Z,5.33
2023-10-26T08:16:36.442Z,4.10
2023-10-26T08:18:40.171Z,2.33
2023-10-26T08:21:07.073Z,2.30
2023-10-26T08:23:34.248Z,2.60
2023-10-26T08:26:09.578Z,2.77
2023-10-26T08:28:38.047Z,1.90
2023-10-26T08:31:06.477Z,6.10
2023-10-26T08:33:36.389Z,7.40
2023-10-26T08:36:05.414Z,2.20
2023-10-26T08:38:33.892Z,6.00
2023-10-26T08:41:01.144Z,1.20
2023-10-26T08:43:30.039Z,1.17
2023-10-26T08:46:00.605Z,5.30
2023-10-26T08:48:31.534Z,1.47
2023-10-26T08:50:59.138Z,2.37
2023-10-26T08:53:26.064Z,2.80
2023-10-26T08:55:56.278Z,2.83
2023-10-26T08:58:23.536Z,2.73
2023-10-26T09:00:53.185Z,3.43
2023-10-26T09:03:23.091Z,2.30
2023-10-26T09:05:54.216Z,0.77
2023-10-26T09:08:23.830Z,2.57
2023-10-26T09:10:52.680Z,2.97
2023-10-26T09:13:36.079Z,1.70
2023-10-26T09:16:08.375Z,2.80
2023-10-26T09:18:37.132Z,1.90
2023-10-26T09:21:06.057Z,3.60
2023-10-26T09:23:35.034Z,3.53
2023-10-26T09:26:05.300Z,4.03
2023-10-26T09:28:48.801Z,2.47
2023-10-26T09:31:15.720Z,3.60
2023-10-26T09:33:42.573Z,2.67
2023-10-26T09:36:14.478Z,3.80
2023-10-26T09:38:42.770Z,1.60
2023-10-26T09:41:13.525Z,5.50
2023-10-26T09:43:42.288Z,3.97
2023-10-26T09:46:11.473Z,1.40
2023-10-26T09:48:39.757Z,1.47
2023-10-26T09:51:06.715Z,2.33
2023-10-26T09:53:44.327Z,0.70
2023-10-26T09:56:21.950Z,1.73
2023-10-26T10:02:17.083Z,4.20
2023-10-26T10:04:46.276Z,0.97
2023-10-26T10:07:19.077Z,2.17
2023-10-26T10:10:02.767Z,2.63
2023-10-26T10:12:29.733Z,2.23
2023-10-26T10:15:15.752Z,2.63
2023-10-26T10:17:46.088Z,5.43
2023-10-26T10:20:16.467Z,3.10
2023-10-26T10:22:47.514Z,2.30
2023-10-26T10:25:15.633Z,2.73
2023-10-26T10:28:02.549Z,1.20
2023-10-26T10:30:31.503Z,2.23
2023-10-26T10:32:58.759Z,3.30
2023-10-26T10:35:45.329Z,2.30
2023-10-26T10:38:14.708Z,3.20
2023-10-26T10:41:02.817Z,1.70
2023-10-26T10:43:46.522Z,3.23
2023-10-26T10:46:16.294Z,1.50
2023-10-26T10:48:59.711Z,2.00
2023-10-26T10:51:37.877Z,2.30
2023-10-26T10:55:05.374Z,3.87
2023-10-26T10:57:32.660Z,2.27
2023-10-26T10:59:59.666Z,1.00
2023-10-26T11:02:26.532Z,3.93
2023-10-26T11:05:00.171Z,0.90
2023-10-26T11:07:36.458Z,0.40
2023-10-26T11:10:04.667Z,1.03
2023-10-26T11:12:31.979Z,1.00
2023-10-26T11:14:59.616Z,1.33
2023-10-26T11:17:28.098Z,1.00
2023-10-26T11:19:55.508Z,0.77
2023-10-26T11:22:23.251Z,2.20
2023-10-26T11:24:50.968Z,1.47
2023-10-26T11:27:20.553Z,1.23
2023-10-26T11:30:02.503Z,1.63
2023-10-26T11:32:30.703Z,1.70
2023-10-26T11:35:07.010Z,0.80
2023-10-26T11:37:36.433Z,0.80
2023-10-26T11:40:08.590Z,2.60
2023-10-26T11:42:52.782Z,1.27
2023-10-26T11:45:23.092Z,1.80
2023-10-26T11:47:53.370Z,1.37
2023-10-26T11:50:24.730Z,4.50
2023-10-26T11:52:54.255Z,3.53
2023-10-26T11:55:22.695Z,4.23
2023-10-26T11:57:50.116Z,2.30
2023-10-26T12:00:19.217Z,1.60
2023-10-26T12:02:46.430Z,1.73
2023-10-26T12:05:16.946Z,1.43
2023-10-26T12:07:45.403Z,2.67
2023-10-26T12:10:13.409Z,1.50
2023-10-26T12:12:40.612Z,2.27
2023-10-26T12:15:08.122Z,1.77
2023-10-26T12:17:35.494Z,1.50
2023-10-26T12:20:04.208Z,1.67
2023-10-26T12:22:31.483Z,1.27
2023-10-26T12:24:58.630Z,2.70
2023-10-26T12:27:25.941Z,2.10
2023-10-26T12:29:53.214Z,3.07
2023-10-26T12:32:27.486Z,1.40
2023-10-26T12:34:54.970Z,1.57
2023-10-26T12:37:24.927Z,3.07
2023-10-26T12:39:55.469Z,2.00
2023-10-26T12:42:24.356Z,5.07
2023-10-26T12:44:54.560Z,1.40
2023-10-26T12:47:24.176Z,3.87
2023-10-26T12:49:51.296Z,1.87
2023-10-26T12:52:18.056Z,2.80
2023-10-26T12:54:45.232Z,1.43
2023-10-26T12:57:12.258Z,1.70
2023-10-26T12:59:39.218Z,2.30
2023-10-26T13:02:06.620Z,2.00
2023-10-26T13:04:34.874Z,2.03
2023-10-26T13:07:01.771Z,1.00
2023-10-26T13:09:29.511Z,1.60
2023-10-26T13:11:56.431Z,2.30
2023-10-26T13:14:23.404Z,0.80
2023-10-26T13:16:57.694Z,4.73
2023-10-26T13:19:26.334Z,0.80
2023-10-26T13:21:53.459Z,1.23
2023-10-26T13:24:20.479Z,2.07
2023-10-26T13:26:47.531Z,1.40
2023-10-26T13:29:14.697Z,1.40
2023-10-26T13:31:41.973Z,1.80
2023-10-26T13:34:09.193Z,1.53
2023-10-26T13:36:36.106Z,1.83
2023-10-26T13:39:05.809Z,2.20
2023-10-26T13:41:32.805Z,3.10
2023-10-26T13:44:00.388Z,2.63
2023-10-26T13:46:29.469Z,2.07
2023-10-26T13:48:56.701Z,1.70
2023-10-26T13:51:23.846Z,3.40
2023-10-26T13:53:51.064Z,3.90
2023-10-26T13:56:18.244Z,3.53
2023-10-26T13:58:45.247Z,2.67
2023-10-26T14:01:13.597Z,2.10
2023-10-26T14:03:40.719Z,5.63
2023-10-26T14:06:09.155Z,3.93
2023-10-26T14:08:37.799Z,4.00
2023-10-26T14:11:04.936Z,1.70
2023-10-26T14:13:31.854Z,8.33
2023-10-26T14:15:58.881Z,13.67
2023-10-26T14:18:25.841Z,11.00
2023-10-26T14:20:52.813Z,7.13
2023-10-26T14:23:21.154Z,6.80
2023-10-26T14:25:48.289Z,5.97
2023-10-26T14:28:15.246Z,3.00
2023-10-26T14:30:42.392Z,7.50
2023-10-26T14:33:09.526Z,5.30
2023-10-26T14:35:36.502Z,4.43
2023-10-26T14:38:03.610Z,3.90
2023-10-26T14:40:30.726Z,5.10
2023-10-26T14:42:58.037Z,5.53
2023-10-26T14:45:26.810Z,7.53
2023-10-26T14:47:53.980Z,3.50
2023-10-26T14:50:20.953Z,4.93
2023-10-26T14:52:47.927Z,3.00
2023-10-26T14:55:14.974Z,3.97
2023-10-26T14:57:41.953Z,15.83
2023-10-26T15:00:09.560Z,6.03
2023-10-26T15:02:36.592Z,11.43
2023-10-26T15:05:04.949Z,7.93
2023-10-26T15:07:31.954Z,17.30
2023-10-26T15:10:23.515Z,8.20
2023-10-26T15:12:45.918Z,12.00
2023-10-26T15:15:12.895Z,14.00
2023-10-26T15:17:39.819Z,20.30
2023-10-26T15:20:07.539Z,14.07
2023-10-26T15:22:34.368Z,12.07
2023-10-26T15:25:01.306Z,12.63
2023-10-26T15:27:28.237Z,13.43
2023-10-26T15:29:55.134Z,8.50
2023-10-26T15:32:21.961Z,10.20
2023-10-26T15:34:49.027Z,10.53
2023-10-26T15:37:16.313Z,8.20
2023-10-26T15:39:44.792Z,11.43
2023-10-26T15:42:19.645Z,11.03
2023-10-26T15:44:52.843Z,13.97
2023-10-26T15:47:21.454Z,10.20
2023-10-26T15:49:49.999Z,8.30
2023-10-26T15:52:18.911Z,7.13
2023-10-26T15:54:45.987Z,6.50
2023-10-26T15:57:13.208Z,8.67
2023-10-26T15:59:40.179Z,5.53
2023-10-26T16:02:07.637Z,12.17
2023-10-26T16:04:36.064Z,6.27
2023-10-26T16:07:03.447Z,7.23
2023-10-26T16:09:33.546Z,15.00
2023-10-26T16:12:02.150Z,13.70
2023-10-26T16:14:29.271Z,8.33
2023-10-26T16:16:56.240Z,10.00
2023-10-26T16:19:23.598Z,8.27
2023-10-26T16:21:51.855Z,11.90
2023-10-26T16:24:19.319Z,8.80
2023-10-26T16:26:46.594Z,12.20
2023-10-26T16:29:13.457Z,8.00
2023-10-26T16:31:40.499Z,10.17
2023-10-26T16:34:07.634Z,5.10
2023-10-26T16:36:34.670Z,6.27
2023-10-26T16:39:01.559Z,8.87
2023-10-26T16:41:28.367Z,5.90
2023-10-26T16:43:55.260Z,8.73
2023-10-26T16:46:22.206Z,9.40
2023-10-26T16:48:49.284Z,12.63
2023-10-26T16:51:16.580Z,10.93
2023-10-26T16:53:44.334Z,9.63
2023-10-26T16:56:11.506Z,8.17
2023-10-26T16:58:38.707Z,12.67
2023-10-26T17:01:11.874Z,13.93
2023-10-26T17:03:39.986Z,7.27
2023-10-26T17:06:09.922Z,7.90
2023-10-26T17:08:37.218Z,9.00
2023-10-26T17:11:04.529Z,7.13
2023-10-26T17:13:31.656Z,7.90
2023-10-26T17:15:58.647Z,11.63
2023-10-26T17:18:25.616Z,8.17
2023-10-26T17:20:56.953Z,14.20
2023-10-26T17:23:24.421Z,4.70
2023-10-26T17:25:51.427Z,7.70
2023-10-26T17:28:18.434Z,9.00
2023-10-26T17:30:45.613Z,5.40
2023-10-26T17:33:14.766Z,6.97
2023-10-26T17:35:46.179Z,10.03
2023-10-26T17:38:13.426Z,10.50
2023-10-26T17:40:40.660Z,8.30
2023-10-26T17:43:09.432Z,6.80
2023-10-26T17:45:36.967Z,7.37
2023-10-26T17:48:04.660Z,6.80
2023-10-26T17:50:32.284Z,7.87
2023-10-26T17:52:59.384Z,13.60
2023-10-26T17:55:26.815Z,4.97
2023-10-26T17:57:53.884Z,7.30
2023-10-26T18:00:21.161Z,14.63
2023-10-26T18:02:48.207Z,8.67
2023-10-26T18:05:15.345Z,6.90
2023-10-26T18:07:42.418Z,4.30
2023-10-26T18:10:09.947Z,13.27
2023-10-26T18:12:37.334Z,5.90
2023-10-26T18:15:06.925Z,5.00
2023-10-26T18:17:34.701Z,7.00
2023-10-26T18:20:01.875Z,7.50
2023-10-26T18:22:28.929Z,13.57
2023-10-26T18:24:57.059Z,12.03
2023-10-26T18:27:24.313Z,10.80
2023-10-26T18:29:51.437Z,12.57
2023-10-26T18:35:34.844Z,9.93
2023-10-26T18:38:02.843Z,13.10
2023-10-26T18:40:31.070Z,15.50
2023-10-26T18:45:40.900Z,10.97
2023-10-26T18:48:13.727Z,11.70
2023-10-26T18:50:43.184Z,12.00
2023-10-26T18:56:51.420Z,11.17
2023-10-26T18:59:19.092Z,15.33
2023-10-26T19:01:46.095Z,9.00
2023-10-26T19:04:14.646Z,15.80
2023-10-26T19:06:42.534Z,7.83
2023-10-26T19:09:37.474Z,7.87
2023-10-26T19:12:05.915Z,4.10
2023-10-26T19:14:33.624Z,6.17
2023-10-26T19:17:00.944Z,13.57
2023-10-26T19:19:28.181Z,7.70
2023-10-26T19:21:55.608Z,9.00
2023-10-26T19:24:22.855Z,12.33
2023-10-26T19:26:49.965Z,10.23
2023-10-26T19:29:17.425Z,11.37
2023-10-26T19:31:44.528Z,14.33
2023-10-26T19:34:11.727Z,12.27
2023-10-26T19:36:38.669Z,11.50
2023-10-26T19:39:08.048Z,5.73
2023-10-26T19:41:35.168Z,5.30
2023-10-26T19:44:02.606Z,7.33
2023-10-26T19:46:29.877Z,7.10
2023-10-26T19:48:56.878Z,6.30
2023-10-26T19:51:23.976Z,4.27
2023-10-26T19:53:53.440Z,9.20
2023-10-26T19:56:21.330Z,11.20
2023-10-26T19:58:48.572Z,9.17
2023-10-26T20:01:16.384Z,4.07
2023-10-26T20:03:43.529Z,9.10
2023-10-26T20:06:10.687Z,5.80
2023-10-26T20:08:37.762Z,12.27
2023-10-26T20:11:05.794Z,12.23
2023-10-26T20:13:32.848Z,12.57
2023-10-26T20:15:59.877Z,12.83
2023-10-26T20:18:28.334Z,13.40
2023-10-26T20:20:55.347Z,12.87
2023-10-26T20:23:22.558Z,15.50
2023-10-26T20:25:57.526Z,10.20
2023-10-26T20:28:27.341Z,12.00
2023-10-26T20:30:55.268Z,11.23
2023-10-26T20:33:23.334Z,8.97
2023-10-26T20:35:53.034Z,6.60
2023-10-26T20:38:21.169Z,5.10
2023-10-26T20:40:48.092Z,6.13
2023-10-26T20:43:15.117Z,7.73
2023-10-26T20:45:44.899Z,13.40
2023-10-26T20:48:11.740Z,5.73
2023-10-26T20:50:39.086Z,10.83
2023-10-26T20:53:05.923Z,9.80
2023-10-26T20:55:32.997Z,7.47
2023-10-26T20:57:59.908Z,9.47
2023-10-26T21:00:26.856Z,10.67
2023-10-26T21:02:53.850Z,8.83
2023-10-26T21:05:20.712Z,10.07
2023-10-26T21:07:47.723Z,5.70
2023-10-26T21:10:14.783Z,8.70
2023-10-26T21:12:43.028Z,12.63
2023-10-26T21:15:11.098Z,9.50
2023-10-26T21:17:38.275Z,8.90
2023-10-26T21:20:08.151Z,21.30
2023-10-26T21:22:36.418Z,10.00
2023-10-26T21:25:06.012Z,8.90
2023-10-26T21:27:33.016Z,10.80
2023-10-26T21:29:59.879Z,8.50
2023-10-26T21:32:26.834Z,7.00
2023-10-26T21:34:53.949Z,8.80
2023-10-26T21:37:21.147Z,9.00
2023-10-26T21:39:48.135Z,11.30
2023-10-26T21:42:16.065Z,13.07
2023-10-26T21:44:43.231Z,6.70
2023-10-26T21:47:11.213Z,11.70
2023-10-26T21:49:38.335Z,7.97
2023-10-26T21:52:06.516Z,4.30
2023-10-26T21:54:33.901Z,6.47
2023-10-26T21:57:00.936Z,11.00
2023-10-26T21:59:27.926Z,5.83
2023-10-26T22:01:55.449Z,14.40
2023-10-26T22:04:23.353Z,13.90
2023-10-26T22:06:51.251Z,10.67
2023-10-26T22:09:18.511Z,7.03
2023-10-26T22:11:45.393Z,7.90
2023-10-26T22:14:12.551Z,12.03
2023-10-26T22:16:41.199Z,10.40
2023-10-26T22:19:08.261Z,9.63
2023-10-26T22:21:35.076Z,8.20
2023-10-26T22:24:02.858Z,4.73
2023-10-26T22:26:29.694Z,6.53
2023-10-26T22:28:56.610Z,6.13
2023-10-26T22:31:23.477Z,5.20
2023-10-26T22:33:50.481Z,11.17
2023-10-26T22:36:17.331Z,9.37
2023-10-26T22:38:46.211Z,11.63
2023-10-26T22:41:13.128Z,8.57
2023-10-26T22:43:40.211Z,6.00
2023-10-26T22:46:07.110Z,3.50
2023-10-26T22:48:34.110Z,8.63
2023-10-26T22:51:01.125Z,8.73
2023-10-26T22:53:28.183Z,6.60
2023-10-26T22:55:55.074Z,9.53
2023-10-26T22:58:22.429Z,4.83
2023-10-26T23:00:49.489Z,5.03
2023-10-26T23:03:16.453Z,11.07
2023-10-26T23:05:44.239Z,11.20
2023-10-26T23:08:14.589Z,8.13
2023-10-26T23:10:41.558Z,6.63
2023-10-26T23:13:08.872Z,3.63
2023-10-26T23:15:35.755Z,16.83
2023-10-26T23:18:02.633Z,8.47
2023-10-26T23:20:30.911Z,9.70
2023-10-26T23:22:57.695Z,4.33
2023-10-26T23:25:27.581Z,9.67
2023-10-26T23:27:54.563Z,5.23
2023-10-26T23:30:21.974Z,10.40
2023-10-26T23:32:54.053Z,4.37
2023-10-26T23:35:20.892Z,7.00
2023-10-26T23:37:47.802Z,4.33
2023-10-26T23:40:14.652Z,6.73
2023-10-26T23:42:41.619Z,5.70
2023-10-26T23:45:08.709Z,5.40
2023-10-26T23:47:35.608Z,4.00
2023-10-26T23:50:02.479Z,3.20
2023-10-26T23:52:29.326Z,3.90
2023-10-26T23:54:56.234Z,4.97
2023-10-26T23:57:23.355Z,6.00
2023-10-26T23:59:50.202Z,1.90
